Barkley Regional Airport
KPAH : now visible

Airfield :











YOU CAN JOIN US ON...

 
LOGIN :

Register | Disclaimer

   EN    FR    IT 

 









Legend :    VFR   Marginal VFR   IFR   Intensive IFR   Very Intensive IFR
Visi :
Ceiling :
>= 8 km
>= 3000ft
5 to 8 km
1000 to 3000 ft
1500m to 5 km
500 to 1000 ft
800 to 1500m
200 to 500 ft
< 800m
< 200 ft
Symbols :   Thunderstorms  Fog  Heavy snow  Heavy precipitations  Wind > 20 kt







- Airport Elevation : 410 ft
- IATA code : PAH


KPAH - Barkley Regional

CURRENT METAR :
  • 200853Z AUTO 09003KT 4SM BR SCT039 21/19 A3009 RMK AO2 SLP186 T02060194 51008

EXPIRED METARs :
  • 200753Z AUTO 14003KT 6SM BR CLR 21/19 A3009 RMK AO2 SLP184 T02110194
  • 200653Z AUTO 00000KT 8SM CLR 22/20 A3009 RMK AO2 SLP183 T02220200

TAF KPAH
Valid from the 20 at 06:00 until the 21 at 06:00 UTC


200520Z 2006/2106 19005KT P6SM SCT250
FM201500 19011G20KT P6SM SCT080
FM210000 16005KT P6SM FEW250
No reported NOTAMs for that airfield.



MET'MAP, your aeronautical weather chart ! - Copyright ORBIFLY December 2007 - Disclaimer

ORBIFLY MET'MAP TEAM :

Programming & Development : Alexandra Zaïnal
Concept & Development : Baudouin d'Aumeries
Co-Development & Prog : Marc-Olivier Méhu
Technical & hardware support : Manuel Goepfert

Contact : metmap@orbifly.com




SOURCES & CREDITS :

   NOAA       Earth
Advisory